This is the latest recevied weather packets stored in our database for station/object DL2AKT-20. If no packets are shown the sender has not sent any weather packets the latest 10 day(s).
| Time | Temp. | Humidity | Pressure | Rain* | Wind** | Luminosity | Snow |
|---|---|---|---|---|---|---|---|
| 1777839650 | 23.33° C | 29% | 1015.8 hPa | - | - | - | - |
| 1777838750 | 23.89° C | 28% | 1015.9 hPa | - | - | - | - |
| 1777836950 | 23.89° C | 28% | 1015.7 hPa | - | - | - | - |
| 1777835150 | 24.44° C | 27% | 1015.4 hPa | - | - | - | - |
| 1777833359 | 25° C | 26% | 1015.2 hPa | - | - | - | - |
| 1777832459 | 25° C | 26% | 1015 hPa | - | - | - | - |
| 1777829759 | 25.56° C | 25% | 1015 hPa | - | - | - | - |
| 1777828859 | 25.56° C | 24% | 1015.1 hPa | - | - | - | - |
| 1777827959 | 26.11° C | 24% | 1015.1 hPa | - | - | - | - |
| 1777827059 | 26.67° C | 22% | 1015.2 hPa | - | - | - | - |
| 1777826159 | 27.22° C | 22% | 1015.2 hPa | - | - | - | - |
| 1777825258 | 27.22° C | 22% | 1015.2 hPa | - | - | - | - |
| 1777824358 | 28.33° C | 22% | 1015.3 hPa | - | - | - | - |
| 1777821651 | 30° C | 21% | 1015.4 hPa | - | - | - | - |
| 1777820751 | 30.56° C | 20% | 1015.4 hPa | - | - | - | - |
| 1777818049 | 30.56° C | 19% | 1015.6 hPa | - | - | - | - |
| 1777817149 | 30° C | 20% | 1015.6 hPa | - | - | - | - |
| 1777816249 | 29.44° C | 20% | 1015.7 hPa | - | - | - | - |
| 1777815349 | 29.44° C | 20% | 1015.9 hPa | - | - | - | - |
| 1777814449 | 29.44° C | 20% | 1016.1 hPa | - | - | - | - |
| 1777813549 | 29.44° C | 21% | 1016.2 hPa | - | - | - | - |
| 1777812652 | 29.44° C | 21% | 1016.4 hPa | - | - | - | - |
| 1777811752 | 28.89° C | 21% | 1016.3 hPa | - | - | - | - |
| 1777803651 | 25.56° C | 25% | 1017.4 hPa | - | - | - | - |
| 1777802750 | 25.56° C | 26% | 1017.4 hPa | - | - | - | - |
* Rain since midnight (hover to see other rain measurements)
** Current wind speed in m/s (hover to see current wind gust speed)